createdAt,value
2023-03-05T00:00:03.992Z,8.32
2023-03-05T00:02:18.305Z,8.25
2023-03-05T00:04:26.062Z,10.70
2023-03-05T00:06:35.822Z,10.30
2023-03-05T00:08:41.741Z,9.52
2023-03-05T00:10:46.631Z,14.27
2023-03-05T00:12:52.500Z,12.77
2023-03-05T00:14:57.434Z,11.88
2023-03-05T00:17:03.397Z,15.65
2023-03-05T00:19:09.038Z,13.60
2023-03-05T00:21:28.624Z,9.07
2023-03-05T00:23:33.584Z,11.75
2023-03-05T00:25:41.864Z,14.95
2023-03-05T00:27:46.801Z,10.35
2023-03-05T00:29:52.433Z,15.45
2023-03-05T00:31:57.771Z,11.27
2023-03-05T00:34:06.941Z,8.30
2023-03-05T00:36:13.578Z,12.65
2023-03-05T00:38:21.841Z,8.20
2023-03-05T00:40:26.931Z,11.70
2023-03-05T00:42:33.641Z,13.50
2023-03-05T00:44:39.307Z,12.35
2023-03-05T00:46:44.738Z,11.65
2023-03-05T00:50:56.682Z,14.07
2023-03-05T00:53:03.005Z,11.95
2023-03-05T00:55:11.732Z,15.20
2023-03-05T00:57:17.003Z,11.60
2023-03-05T01:01:29.426Z,13.23
2023-03-05T01:03:36.069Z,12.75
2023-03-05T01:05:41.612Z,10.88
2023-03-05T01:07:47.469Z,14.57
2023-03-05T01:09:52.755Z,14.10
2023-03-05T01:12:00.766Z,8.77
2023-03-05T01:14:06.968Z,11.45
2023-03-05T01:16:14.539Z,8.80
2023-03-05T01:18:23.436Z,7.35
2023-03-05T01:20:28.332Z,15.85
2023-03-05T01:22:34.138Z,9.60
2023-03-05T01:24:38.992Z,14.50
2023-03-05T01:26:45.064Z,8.60
2023-03-05T01:28:52.516Z,9.73
2023-03-05T01:30:57.897Z,8.48
2023-03-05T01:33:04.240Z,12.75
2023-03-05T01:35:18.327Z,8.20
2023-03-05T01:37:23.244Z,7.88
2023-03-05T01:39:28.274Z,10.65
2023-03-05T01:41:34.426Z,11.48
2023-03-05T01:43:39.440Z,14.52
2023-03-05T01:46:36.402Z,11.40
2023-03-05T01:48:45.405Z,9.00
2023-03-05T01:50:50.540Z,13.32
2023-03-05T01:53:01.281Z,9.50
2023-03-05T01:55:10.843Z,8.98
2023-03-05T01:57:21.190Z,8.98
2023-03-05T01:59:28.381Z,9.93
2023-03-05T02:01:46.754Z,13.77
2023-03-05T02:03:54.280Z,13.32
2023-03-05T02:05:59.424Z,7.15
2023-03-05T02:08:07.696Z,12.15
2023-03-05T02:10:21.960Z,13.05
2023-03-05T02:12:27.582Z,9.18
2023-03-05T02:14:32.533Z,9.07
2023-03-05T02:16:39.768Z,12.75
2023-03-05T02:18:45.778Z,7.72
2023-03-05T02:20:57.018Z,8.60
2023-03-05T02:23:04.466Z,11.32
2023-03-05T02:25:22.461Z,11.50
2023-03-05T02:27:35.913Z,9.75
2023-03-05T02:29:47.848Z,12.32
2023-03-05T02:31:53.110Z,10.45
2023-03-05T02:33:58.756Z,8.63
2023-03-05T02:36:04.431Z,8.82
2023-03-05T02:38:12.014Z,7.88
2023-03-05T02:40:18.384Z,6.70
2023-03-05T02:42:23.864Z,5.30
2023-03-05T02:44:29.586Z,9.45
2023-03-05T02:46:34.988Z,12.85
2023-03-05T02:48:40.753Z,7.60
2023-03-05T02:50:50.371Z,11.02
2023-03-05T02:52:55.682Z,7.30
2023-03-05T02:55:03.434Z,12.55
2023-03-05T02:57:09.499Z,9.23
2023-03-05T02:59:14.398Z,10.40
2023-03-05T03:01:19.446Z,7.72
2023-03-05T03:03:24.943Z,9.05
2023-03-05T03:05:30.184Z,12.18
2023-03-05T03:07:37.492Z,10.10
2023-03-05T03:09:42.923Z,11.10
2023-03-05T03:11:50.816Z,7.38
2023-03-05T03:13:56.110Z,8.10
2023-03-05T03:16:06.506Z,7.13
2023-03-05T03:18:11.657Z,8.75
2023-03-05T03:20:20.849Z,5.47
2023-03-05T03:22:25.719Z,6.30
2023-03-05T03:24:32.778Z,8.13
2023-03-05T03:26:37.937Z,6.75
2023-03-05T03:28:45.819Z,9.13
2023-03-05T03:30:50.899Z,7.95
2023-03-05T03:32:56.516Z,7.55
2023-03-05T03:35:01.979Z,11.20
2023-03-05T03:37:07.434Z,11.93
2023-03-05T03:39:14.458Z,13.45
2023-03-05T03:41:22.437Z,8.95
2023-03-05T03:43:28.044Z,7.85
2023-03-05T03:47:43.336Z,8.10
2023-03-05T03:49:48.252Z,7.82
2023-03-05T03:51:55.873Z,9.32
2023-03-05T03:54:02.357Z,6.63
2023-03-05T03:56:08.549Z,11.18
2023-03-05T03:58:13.534Z,8.52
2023-03-05T04:00:20.914Z,8.27
2023-03-05T04:02:30.580Z,7.57
2023-03-05T04:04:35.536Z,9.43
2023-03-05T04:06:41.085Z,6.25
2023-03-05T04:08:46.571Z,7.00
2023-03-05T04:10:51.447Z,7.50
2023-03-05T04:12:56.676Z,10.70
2023-03-05T04:15:03.001Z,7.25
2023-03-05T04:17:08.018Z,9.40
2023-03-05T04:19:15.901Z,7.53
2023-03-05T04:21:21.376Z,4.22
2023-03-05T04:23:26.230Z,5.15
2023-03-05T04:25:31.706Z,8.70
2023-03-05T04:27:37.956Z,10.98
2023-03-05T04:29:43.238Z,11.00
2023-03-05T04:31:48.125Z,5.88
2023-03-05T04:33:53.653Z,8.35
2023-03-05T04:36:01.174Z,7.15
2023-03-05T04:38:06.777Z,8.80
2023-03-05T04:40:14.694Z,8.57
2023-03-05T04:42:21.171Z,5.38
2023-03-05T04:44:26.618Z,4.85
2023-03-05T04:46:31.524Z,5.13
2023-03-05T04:48:37.097Z,4.18
2023-03-05T04:50:42.730Z,7.00
2023-03-05T04:52:51.112Z,9.95
2023-03-05T04:54:57.598Z,6.82
2023-03-05T04:57:02.498Z,7.93
2023-03-05T04:59:07.850Z,8.05
2023-03-05T05:01:14.275Z,7.63
2023-03-05T05:03:19.208Z,9.13
2023-03-05T05:05:26.888Z,8.43
2023-03-05T05:07:33.117Z,10.98
2023-03-05T05:09:41.960Z,7.20
2023-03-05T05:11:47.560Z,9.60
2023-03-05T05:13:53.623Z,8.05
2023-03-05T05:15:59.123Z,6.35
2023-03-05T05:18:04.017Z,7.22
2023-03-05T05:20:11.604Z,6.13
2023-03-05T05:22:16.852Z,4.95
2023-03-05T05:24:21.735Z,6.95
2023-03-05T05:26:30.289Z,5.88
2023-03-05T05:28:35.403Z,6.50
2023-03-05T05:30:42.086Z,5.65
2023-03-05T05:32:47.330Z,6.25
2023-03-05T05:34:56.117Z,4.32
2023-03-05T05:37:02.001Z,5.38
2023-03-05T05:39:07.366Z,9.32
2023-03-05T05:41:15.018Z,6.60
2023-03-05T05:43:23.606Z,10.13
2023-03-05T05:45:28.670Z,6.68
2023-03-05T05:47:34.055Z,8.60
2023-03-05T05:49:39.388Z,6.40
2023-03-05T05:51:45.295Z,6.22
2023-03-05T05:53:50.719Z,3.78
2023-03-05T05:55:56.148Z,3.80
2023-03-05T05:58:01.408Z,4.30
2023-03-05T06:00:13.746Z,4.85
2023-03-05T06:02:20.505Z,8.68
2023-03-05T06:04:25.844Z,5.72
2023-03-05T06:06:31.709Z,3.72
2023-03-05T06:08:36.594Z,4.28
2023-03-05T06:10:41.528Z,12.40
2023-03-05T06:12:47.065Z,8.15
2023-03-05T06:14:52.651Z,4.82
2023-03-05T06:17:00.133Z,3.95
2023-03-05T06:19:05.752Z,6.43
2023-03-05T06:21:14.450Z,2.50
2023-03-05T06:23:19.367Z,5.55
2023-03-05T06:25:24.936Z,5.28
2023-03-05T06:27:29.986Z,4.00
2023-03-05T06:29:35.206Z,2.83
2023-03-05T06:31:41.292Z,6.13
2023-03-05T06:33:49.731Z,5.53
2023-03-05T06:35:54.663Z,5.47
2023-03-05T06:37:59.535Z,6.68
2023-03-05T06:40:05.953Z,6.57
2023-03-05T06:42:13.250Z,5.40
2023-03-05T06:44:18.439Z,6.78
2023-03-05T06:46:26.547Z,4.40
2023-03-05T06:48:31.573Z,8.05
2023-03-05T06:50:41.325Z,4.03
2023-03-05T06:52:46.248Z,4.68
2023-03-05T06:54:51.255Z,5.80
2023-03-05T06:56:56.859Z,3.72
2023-03-05T06:59:01.921Z,8.05
2023-03-05T07:01:09.354Z,4.07
2023-03-05T07:03:14.598Z,5.40
2023-03-05T07:05:20.682Z,6.05
2023-03-05T07:07:28.232Z,9.00
2023-03-05T07:09:33.859Z,3.63
2023-03-05T07:11:39.153Z,5.95
2023-03-05T07:13:46.166Z,5.03
2023-03-05T07:15:51.512Z,3.35
2023-03-05T07:17:56.984Z,5.65
2023-03-05T07:20:02.168Z,2.30
2023-03-05T07:22:09.316Z,5.00
2023-03-05T07:24:17.261Z,7.20
2023-03-05T07:28:29.271Z,3.13
2023-03-05T07:30:35.543Z,6.75
2023-03-05T07:32:41.384Z,3.33
2023-03-05T07:34:46.736Z,5.43
2023-03-05T07:36:54.560Z,5.55
2023-03-05T07:38:59.533Z,4.53
2023-03-05T07:41:10.415Z,5.68
2023-03-05T07:43:15.717Z,6.93
2023-03-05T07:45:22.171Z,4.20
2023-03-05T07:47:27.186Z,4.57
2023-03-05T07:49:32.094Z,6.00
2023-03-05T07:51:37.723Z,6.03
2023-03-05T07:53:42.622Z,8.05
2023-03-05T07:55:47.900Z,5.05
2023-03-05T07:57:55.819Z,5.03
2023-03-05T08:00:00.892Z,5.55
2023-03-05T08:02:05.808Z,4.43
2023-03-05T08:04:11.662Z,5.43
2023-03-05T08:06:17.073Z,5.15
2023-03-05T08:08:21.983Z,5.80
2023-03-05T08:10:26.872Z,5.28
2023-03-05T08:12:32.663Z,5.43
2023-03-05T08:14:41.456Z,5.70
2023-03-05T08:16:48.374Z,5.60
2023-03-05T08:18:56.819Z,6.07
2023-03-05T08:21:02.077Z,4.72
2023-03-05T08:23:07.267Z,5.05
2023-03-05T08:25:12.886Z,2.30
2023-03-05T08:27:17.762Z,5.20
2023-03-05T08:29:23.017Z,5.20
2023-03-05T08:31:32.848Z,2.92
2023-03-05T08:33:38.232Z,7.53
2023-03-05T08:35:43.807Z,3.42
2023-03-05T08:37:50.045Z,2.60
2023-03-05T08:39:56.278Z,4.43
2023-03-05T08:42:01.491Z,6.07
2023-03-05T08:44:07.564Z,4.05
2023-03-05T08:46:14.482Z,5.55
2023-03-05T08:48:22.007Z,5.70
2023-03-05T08:50:27.444Z,5.10
2023-03-05T08:52:32.353Z,6.40
2023-03-05T08:54:37.304Z,3.75
2023-03-05T08:56:42.407Z,4.75
2023-03-05T08:58:49.026Z,5.43
2023-03-05T09:00:54.745Z,4.40
2023-03-05T09:03:00.051Z,5.85
2023-03-05T09:05:08.661Z,5.85
2023-03-05T09:07:14.685Z,2.33
2023-03-05T09:09:21.504Z,4.75
2023-03-05T09:11:26.708Z,5.70
2023-03-05T09:13:31.678Z,8.23
2023-03-05T09:15:36.542Z,4.88
2023-03-05T09:17:43.133Z,9.10
2023-03-05T09:19:48.072Z,4.18
2023-03-05T09:21:57.108Z,4.32
2023-03-05T09:24:02.190Z,3.83
2023-03-05T09:26:09.176Z,5.05
2023-03-05T09:28:14.755Z,5.63
2023-03-05T09:30:20.578Z,4.82
2023-03-05T09:32:25.477Z,5.20
2023-03-05T09:34:30.393Z,6.75
2023-03-05T09:36:36.485Z,7.38
2023-03-05T09:38:43.948Z,6.05
2023-03-05T09:40:58.512Z,11.23
2023-03-05T09:43:12.132Z,5.53
2023-03-05T09:45:28.592Z,6.22
2023-03-05T09:47:57.176Z,3.58
2023-03-05T09:50:13.850Z,6.40
2023-03-05T09:52:24.278Z,8.10
2023-03-05T09:54:40.957Z,3.67
2023-03-05T09:56:50.666Z,7.05
2023-03-05T09:58:59.280Z,5.32
2023-03-05T10:01:07.031Z,2.97
2023-03-05T10:03:21.528Z,4.50
2023-03-05T10:05:34.137Z,7.22
2023-03-05T10:07:44.094Z,3.25
2023-03-05T10:09:58.985Z,3.22
2023-03-05T10:12:09.322Z,2.67
2023-03-05T10:14:21.255Z,8.07
2023-03-05T10:16:58.655Z,5.30
2023-03-05T10:19:12.824Z,3.15
2023-03-05T10:23:47.669Z,3.17
2023-03-05T10:26:06.954Z,4.00
2023-03-05T10:28:20.150Z,4.75
2023-03-05T10:32:53.009Z,4.38
2023-03-05T10:35:26.071Z,2.90
2023-03-05T10:38:03.651Z,3.17
2023-03-05T10:40:23.856Z,4.80
2023-03-05T10:42:40.544Z,3.72
2023-03-05T10:44:53.650Z,3.95
2023-03-05T10:47:02.457Z,3.95
2023-03-05T10:49:20.534Z,3.90
2023-03-05T10:51:36.953Z,2.45
2023-03-05T10:53:56.880Z,5.28
2023-03-05T10:56:04.801Z,5.07
2023-03-05T10:58:19.594Z,5.88
2023-03-05T11:00:27.803Z,5.70
2023-03-05T11:02:33.595Z,7.00
2023-03-05T11:04:42.504Z,4.22
2023-03-05T11:06:49.098Z,8.10
2023-03-05T11:08:54.934Z,5.45
2023-03-05T11:11:19.399Z,4.78
2023-03-05T11:13:31.060Z,4.15
2023-03-05T11:15:36.992Z,4.53
2023-03-05T11:17:47.863Z,7.95
2023-03-05T11:19:53.778Z,7.55
2023-03-05T11:22:20.843Z,4.55
2023-03-05T11:24:25.763Z,9.82
2023-03-05T11:26:30.671Z,8.40
2023-03-05T11:31:03.220Z,6.82
2023-03-05T11:33:13.008Z,4.60
2023-03-05T11:35:34.730Z,5.15
2023-03-05T11:37:39.665Z,7.28
2023-03-05T11:39:46.451Z,7.20
2023-03-05T11:41:55.185Z,6.07
2023-03-05T11:44:06.867Z,7.32
2023-03-05T11:46:16.586Z,4.07
2023-03-05T11:48:27.790Z,7.90
2023-03-05T11:50:36.088Z,6.60
2023-03-05T11:52:48.363Z,7.28
2023-03-05T11:55:05.211Z,6.68
2023-03-05T11:57:14.779Z,11.93
2023-03-05T11:59:31.249Z,9.13
2023-03-05T12:01:45.747Z,7.10
2023-03-05T12:03:52.780Z,6.53
2023-03-05T12:06:04.424Z,8.05
2023-03-05T12:08:15.855Z,7.03
2023-03-05T12:10:23.596Z,6.30
2023-03-05T12:12:40.780Z,7.30
2023-03-05T12:14:58.616Z,9.55
2023-03-05T12:17:14.128Z,8.50
2023-03-05T12:19:45.004Z,7.55
2023-03-05T12:21:55.386Z,5.95
2023-03-05T12:24:04.957Z,5.60
2023-03-05T12:26:10.097Z,7.88
2023-03-05T12:28:18.650Z,11.43
2023-03-05T12:31:00.530Z,8.65
2023-03-05T12:33:08.633Z,8.38
2023-03-05T12:35:28.175Z,10.60
2023-03-05T12:40:25.753Z,10.05
2023-03-05T12:43:00.184Z,9.23
2023-03-05T12:45:38.770Z,10.50
2023-03-05T12:47:47.873Z,9.52
2023-03-05T12:49:53.480Z,9.00
2023-03-05T12:52:01.058Z,12.10
2023-03-05T12:54:32.837Z,10.27
2023-03-05T12:56:40.090Z,9.77
2023-03-05T12:58:48.833Z,12.63
2023-03-05T13:01:01.768Z,9.07
2023-03-05T13:03:20.183Z,9.80
2023-03-05T13:05:29.920Z,12.30
2023-03-05T13:07:35.498Z,11.70
2023-03-05T13:09:40.447Z,9.32
2023-03-05T13:11:49.052Z,11.02
2023-03-05T13:13:54.691Z,9.50
2023-03-05T13:16:00.739Z,13.07
2023-03-05T13:18:19.997Z,8.98
2023-03-05T13:20:37.728Z,12.43
2023-03-05T13:22:42.575Z,9.23
2023-03-05T13:24:47.489Z,9.55
2023-03-05T13:26:52.488Z,8.85
2023-03-05T13:29:14.596Z,9.20
2023-03-05T13:31:24.055Z,9.20
2023-03-05T13:33:34.624Z,8.80
2023-03-05T13:35:48.209Z,8.88
2023-03-05T13:37:53.800Z,8.25
2023-03-05T13:40:05.040Z,8.07
2023-03-05T13:42:20.678Z,8.13
2023-03-05T13:44:25.943Z,6.68
2023-03-05T13:46:38.666Z,7.22
2023-03-05T13:48:47.234Z,11.02
2023-03-05T13:50:58.457Z,9.25
2023-03-05T13:53:19.678Z,7.93
2023-03-05T13:55:24.864Z,7.28
2023-03-05T13:57:40.887Z,9.75
2023-03-05T13:59:55.984Z,9.45
2023-03-05T14:02:03.199Z,9.43
2023-03-05T14:04:22.333Z,7.95
2023-03-05T14:06:31.326Z,6.85
2023-03-05T14:08:37.349Z,8.30
2023-03-05T14:10:43.947Z,10.02
2023-03-05T14:12:49.137Z,6.93
2023-03-05T14:14:54.649Z,8.20
2023-03-05T14:17:40.012Z,9.10
2023-03-05T14:19:48.288Z,9.35
2023-03-05T14:21:54.199Z,7.03
2023-03-05T14:23:59.119Z,6.07
2023-03-05T14:26:29.783Z,8.68
2023-03-05T14:28:37.221Z,7.13
2023-03-05T14:30:48.347Z,7.38
2023-03-05T14:32:58.852Z,5.88
2023-03-05T14:35:09.339Z,7.38
2023-03-05T14:37:24.459Z,6.70
2023-03-05T14:39:42.518Z,5.38
2023-03-05T14:41:49.057Z,5.75
2023-03-05T14:43:53.963Z,6.93
2023-03-05T14:45:58.975Z,6.05
2023-03-05T14:48:06.303Z,6.00
2023-03-05T14:50:18.866Z,6.70
2023-03-05T14:52:28.252Z,6.20
2023-03-05T14:54:38.872Z,6.22
2023-03-05T14:56:44.228Z,5.55
2023-03-05T14:58:49.345Z,6.47
2023-03-05T15:00:55.614Z,5.80
2023-03-05T15:03:01.277Z,6.47
2023-03-05T15:07:36.724Z,7.35
2023-03-05T15:09:41.595Z,5.80
2023-03-05T15:11:46.792Z,5.25
2023-03-05T15:13:52.628Z,7.65
2023-03-05T15:15:57.834Z,5.53
2023-03-05T15:18:02.699Z,6.43
2023-03-05T15:20:10.414Z,7.20
2023-03-05T15:22:15.982Z,6.93
2023-03-05T15:24:24.435Z,7.78
2023-03-05T15:26:29.425Z,10.02
2023-03-05T15:28:36.034Z,7.10
2023-03-05T15:30:44.010Z,6.30
2023-03-05T15:32:49.029Z,6.38
2023-03-05T15:34:54.674Z,7.72
2023-03-05T15:36:59.625Z,6.72
2023-03-05T15:39:04.480Z,6.32
2023-03-05T15:41:12.308Z,6.82
2023-03-05T15:43:17.513Z,8.80
2023-03-05T15:45:23.105Z,6.97
2023-03-05T15:47:28.158Z,8.32
2023-03-05T15:49:33.737Z,7.13
2023-03-05T15:51:38.650Z,8.10
2023-03-05T15:53:44.563Z,8.60
2023-03-05T15:55:49.684Z,7.68
2023-03-05T15:57:57.363Z,9.85
2023-03-05T16:00:02.266Z,7.03
2023-03-05T16:02:08.225Z,8.75
2023-03-05T16:04:13.773Z,10.23
2023-03-05T16:06:22.416Z,9.15
2023-03-05T16:08:30.949Z,8.65
2023-03-05T16:10:38.510Z,8.23
2023-03-05T16:12:45.492Z,11.55
2023-03-05T16:14:53.705Z,9.02
2023-03-05T16:17:00.766Z,8.75
2023-03-05T16:19:08.573Z,9.13
2023-03-05T16:21:14.593Z,7.35
2023-03-05T16:25:26.828Z,7.57
2023-03-05T16:27:32.480Z,6.78
2023-03-05T16:29:37.573Z,7.65
2023-03-05T16:31:45.503Z,7.22
2023-03-05T16:33:50.919Z,7.57
2023-03-05T16:36:22.588Z,7.45
2023-03-05T16:38:30.208Z,10.18
2023-03-05T16:41:06.304Z,9.40
2023-03-05T16:43:04.414Z,7.07
2023-03-05T16:45:12.346Z,10.30
2023-03-05T16:47:20.074Z,9.32
2023-03-05T16:49:25.776Z,8.13
2023-03-05T16:53:36.922Z,6.85
2023-03-05T16:55:43.145Z,7.75
2023-03-05T16:57:48.501Z,10.00
2023-03-05T16:59:54.219Z,7.65
2023-03-05T17:01:59.138Z,10.85
2023-03-05T17:04:07.524Z,7.97
2023-03-05T17:06:15.303Z,7.47
2023-03-05T17:08:20.222Z,6.43
2023-03-05T17:10:26.207Z,9.23
2023-03-05T17:12:31.114Z,8.55
2023-03-05T17:14:36.159Z,9.13
2023-03-05T17:16:41.449Z,7.38
2023-03-05T17:18:46.415Z,11.68
2023-03-05T17:20:56.865Z,11.50
2023-03-05T17:23:02.182Z,10.50
2023-03-05T17:25:09.730Z,8.93
2023-03-05T17:27:19.293Z,10.40
2023-03-05T17:29:25.209Z,9.68
2023-03-05T17:31:30.832Z,10.18
2023-03-05T17:33:37.124Z,9.50
2023-03-05T17:35:47.932Z,9.27
2023-03-05T17:37:56.791Z,12.82
2023-03-05T17:40:02.491Z,8.73
2023-03-05T17:42:08.929Z,12.13
2023-03-05T17:44:15.159Z,8.98
2023-03-05T17:46:20.947Z,12.23
2023-03-05T17:48:26.218Z,12.55
2023-03-05T17:50:31.611Z,10.43
2023-03-05T17:52:38.521Z,10.70
2023-03-05T17:54:46.353Z,11.15
2023-03-05T17:56:56.219Z,8.85
2023-03-05T17:59:02.662Z,9.48
2023-03-05T18:01:09.723Z,9.55
2023-03-05T18:03:18.167Z,10.05
2023-03-05T18:05:27.173Z,12.35
2023-03-05T18:07:33.205Z,12.43
2023-03-05T18:09:38.503Z,11.65
2023-03-05T18:11:46.467Z,13.80
2023-03-05T18:13:51.542Z,10.73
2023-03-05T18:16:00.428Z,11.93
2023-03-05T18:18:05.696Z,12.77
2023-03-05T18:20:18.173Z,12.38
2023-03-05T18:22:24.185Z,7.28
2023-03-05T18:24:29.219Z,11.02
2023-03-05T18:26:35.250Z,11.23
2023-03-05T18:28:43.489Z,12.35
2023-03-05T18:30:49.592Z,14.02
2023-03-05T18:32:55.804Z,12.00
2023-03-05T18:35:01.518Z,11.75
2023-03-05T18:37:06.630Z,11.48
2023-03-05T18:39:16.580Z,11.82
2023-03-05T18:41:27.665Z,12.35
2023-03-05T18:43:35.217Z,11.40
2023-03-05T18:45:43.341Z,13.48
2023-03-05T18:47:49.159Z,13.63
2023-03-05T18:49:57.416Z,15.90
2023-03-05T18:52:02.374Z,13.32
2023-03-05T18:54:08.728Z,12.10
2023-03-05T18:56:14.289Z,15.52
2023-03-05T18:58:23.088Z,13.82
2023-03-05T19:00:35.553Z,13.02
2023-03-05T19:02:44.038Z,15.32
2023-03-05T19:04:49.486Z,14.65
2023-03-05T19:06:57.517Z,15.70
2023-03-05T19:09:09.073Z,14.00
2023-03-05T19:11:19.431Z,18.08
2023-03-05T19:13:35.810Z,17.30
2023-03-05T19:15:42.878Z,13.18
2023-03-05T19:17:52.079Z,16.17
2023-03-05T19:20:00.252Z,19.08
2023-03-05T19:22:05.161Z,17.13
2023-03-05T19:24:11.433Z,19.60
2023-03-05T19:26:17.714Z,17.77
2023-03-05T19:28:22.796Z,16.75
2023-03-05T19:30:28.006Z,16.80
2023-03-05T19:32:33.519Z,17.20
2023-03-05T19:34:41.577Z,19.95
2023-03-05T19:36:47.150Z,17.38
2023-03-05T19:38:52.547Z,14.70
2023-03-05T19:40:57.810Z,15.95
2023-03-05T19:43:03.287Z,18.58
2023-03-05T19:45:11.332Z,16.58
2023-03-05T19:47:18.709Z,16.20
2023-03-05T19:49:23.722Z,17.63
2023-03-05T19:51:33.764Z,16.50
2023-03-05T19:53:38.874Z,16.92
2023-03-05T19:55:45.490Z,15.27
2023-03-05T19:57:50.954Z,17.95
2023-03-05T19:59:56.470Z,17.52
2023-03-05T20:02:02.367Z,18.13
2023-03-05T20:04:09.300Z,17.25
2023-03-05T20:06:14.608Z,19.30
2023-03-05T20:08:22.299Z,19.63
2023-03-05T20:10:27.410Z,20.50
2023-03-05T20:12:33.893Z,28.55
2023-03-05T20:14:38.819Z,24.80
2023-03-05T20:16:46.250Z,37.10
2023-03-05T20:18:54.780Z,40.72
2023-03-05T20:21:03.403Z,37.03
2023-03-05T20:23:08.698Z,24.30
2023-03-05T20:25:21.497Z,21.40
2023-03-05T20:27:27.341Z,24.30
2023-03-05T20:29:32.983Z,21.50
2023-03-05T20:31:41.474Z,23.50
2023-03-05T20:33:47.234Z,23.17
2023-03-05T20:35:53.516Z,25.85
2023-03-05T20:38:21.277Z,24.75
2023-03-05T20:40:29.159Z,27.10
2023-03-05T20:42:34.974Z,27.60
2023-03-05T20:44:43.212Z,31.05
2023-03-05T20:46:59.652Z,32.10
2023-03-05T20:49:07.130Z,25.75
2023-03-05T20:51:18.591Z,24.38
2023-03-05T20:53:24.044Z,20.80
2023-03-05T20:55:32.640Z,28.45
2023-03-05T20:57:38.324Z,21.75
2023-03-05T20:59:44.463Z,25.48
2023-03-05T21:01:49.538Z,26.33
2023-03-05T21:03:57.415Z,26.13
2023-03-05T21:06:06.296Z,27.25
2023-03-05T21:08:11.968Z,25.90
2023-03-05T21:10:18.001Z,24.20
2023-03-05T21:12:25.809Z,24.75
2023-03-05T21:14:36.156Z,25.30
2023-03-05T21:16:42.419Z,23.27
2023-03-05T21:18:48.050Z,22.90
2023-03-05T21:20:53.524Z,23.02
2023-03-05T21:25:15.782Z,29.20
2023-03-05T21:27:21.044Z,19.95
2023-03-05T21:29:30.972Z,23.98
2023-03-05T21:31:37.514Z,22.85
2023-03-05T21:33:42.850Z,22.13
2023-03-05T21:35:48.486Z,24.50
2023-03-05T21:37:54.169Z,21.75
2023-03-05T21:39:59.063Z,23.00
2023-03-05T21:42:05.216Z,24.25
2023-03-05T21:44:11.816Z,22.70
2023-03-05T21:46:19.416Z,23.52
2023-03-05T21:48:25.907Z,29.67
2023-03-05T21:50:33.398Z,27.52
2023-03-05T21:52:40.188Z,19.42
2023-03-05T21:54:45.883Z,23.55
2023-03-05T21:56:51.293Z,20.52
2023-03-05T21:58:56.698Z,21.83
2023-03-05T22:01:02.048Z,22.90
2023-03-05T22:03:09.595Z,21.40
2023-03-05T22:05:16.127Z,25.70
2023-03-05T22:07:22.232Z,22.15
2023-03-05T22:09:27.677Z,23.45
2023-03-05T22:11:32.634Z,20.42
2023-03-05T22:13:38.988Z,23.35
2023-03-05T22:15:48.548Z,21.52
2023-03-05T22:17:53.832Z,22.02
2023-03-05T22:20:01.301Z,19.95
2023-03-05T22:22:07.505Z,21.60
2023-03-05T22:24:12.617Z,19.02
2023-03-05T22:26:17.581Z,20.42
2023-03-05T22:28:24.956Z,25.80
2023-03-05T22:30:29.929Z,23.17
2023-03-05T22:32:36.979Z,22.55
2023-03-05T22:34:41.997Z,24.80
2023-03-05T22:36:49.465Z,19.88
2023-03-05T22:38:55.330Z,20.80
2023-03-05T22:41:00.347Z,20.23
2023-03-05T22:43:05.272Z,22.25
2023-03-05T22:45:11.536Z,19.10
2023-03-05T22:47:17.545Z,26.98
2023-03-05T22:49:22.477Z,21.65
2023-03-05T22:51:27.743Z,23.73
2023-03-05T22:53:35.526Z,19.90
2023-03-05T22:55:41.822Z,22.23
2023-03-05T22:57:50.120Z,22.00
2023-03-05T22:59:55.004Z,19.73
2023-03-05T23:02:00.556Z,22.40
2023-03-05T23:04:18.212Z,22.20
2023-03-05T23:06:26.138Z,20.05
2023-03-05T23:08:31.468Z,20.75
2023-03-05T23:10:39.730Z,18.30
2023-03-05T23:12:49.433Z,21.60
2023-03-05T23:14:55.064Z,21.35
2023-03-05T23:17:00.199Z,22.60
2023-03-05T23:19:05.136Z,23.15
2023-03-05T23:21:10.438Z,22.38
2023-03-05T23:23:15.722Z,25.67
2023-03-05T23:25:21.242Z,20.80
2023-03-05T23:27:28.723Z,23.17
2023-03-05T23:29:52.016Z,25.98
2023-03-05T23:31:57.355Z,22.10
2023-03-05T23:34:02.664Z,18.23
2023-03-05T23:36:09.720Z,23.83
2023-03-05T23:38:16.720Z,20.67
2023-03-05T23:40:25.446Z,24.73
2023-03-05T23:42:33.016Z,21.67
2023-03-05T23:44:37.908Z,23.95
2023-03-05T23:46:43.693Z,26.55
2023-03-05T23:48:48.629Z,20.95
2023-03-05T23:50:54.414Z,19.45
2023-03-05T23:53:01.860Z,23.95
2023-03-05T23:55:08.714Z,25.58
2023-03-05T23:57:13.647Z,23.70
2023-03-05T23:59:22.339Z,25.00
